Time;durP1;ratioP1;P1;durP2;ratioP2;P2;SDS_P1;SDS_P2;PMS_P1;PMS_P2;Temp;Humidity;BMP_temperature;BMP_pressure;BME280_temperature;BME280_humidity;BME280_pressure;Samples;Min_cycle;Max_cycle;Signal;HPM_P1;HPM_P2
2022/01/03 18:04:56;;;;;;;22.33;8.18;;;;;;;;;;5127748;27;20108;-69
2022/01/03 18:07:22;;;;;;;21.35;8.07;;;;;;;;;;5103205;28;20433;-69
2022/01/03 18:09:49;;;;;;;34.30;13.65;;;;;;;;;;5108323;28;20016;-72
2022/01/03 18:12:16;;;;;;;38.83;11.57;;;;;;;;;;5096931;28;20038;-70
2022/01/03 18:14:42;;;;;;;28.27;11.70;;;;;;;;;;5088402;28;20516;-70
2022/01/03 18:17:09;;;;;;;31.92;14.60;;;;;;;;;;5108571;28;20076;-70
2022/01/03 18:19:35;;;;;;;39.10;16.70;;;;;;;;;;5112271;28;20024;-70
2022/01/03 18:22:01;;;;;;;40.33;17.00;;;;;;;;;;5108893;28;20047;-63
2022/01/03 18:24:27;;;;;;;23.63;9.73;;;;;;;;;;5106589;28;20042;-72
2022/01/03 18:26:53;;;;;;;32.65;13.35;;;;;;;;;;5104794;28;20019;-73
2022/01/03 18:29:20;;;;;;;34.45;15.07;;;;;;;;;;5111447;28;20027;-71
2022/01/03 18:31:46;;;;;;;32.90;16.58;;;;;;;;;;5113722;28;20043;-71
2022/01/03 18:34:13;;;;;;;39.10;19.05;;;;;;;;;;5103739;28;20027;-72
2022/01/03 18:36:39;;;;;;;40.97;19.58;;;;;;;;;;5106980;28;20016;-70
2022/01/03 18:39:06;;;;;;;38.58;19.42;;;;;;;;;;5103776;28;20315;-70
2022/01/03 18:41:36;;;;;;;41.95;17.98;;;;;;;;;;5102806;28;20023;-72
2022/01/03 18:44:02;;;;;;;38.03;15.13;;;;;;;;;;5107324;28;21998;-71
2022/01/03 18:46:28;;;;;;;29.45;14.48;;;;;;;;;;5107200;28;20035;-73
2022/01/03 18:48:54;;;;;;;27.77;12.52;;;;;;;;;;5105804;28;20035;-73
2022/01/03 18:51:20;;;;;;;24.70;11.95;;;;;;;;;;5108056;28;20034;-72
2022/01/03 18:53:46;;;;;;;24.50;11.20;;;;;;;;;;5110092;28;20084;-72
2022/01/03 18:56:13;;;;;;;22.40;10.18;;;;;;;;;;5105342;28;20043;-74
2022/01/03 18:58:40;;;;;;;22.95;10.40;;;;;;;;;;5106695;28;20030;-70
2022/01/03 19:01:07;;;;;;;21.55;9.15;;;;;;;;;;5101477;28;20032;-73
2022/01/03 19:03:33;;;;;;;19.10;8.20;;;;;;;;;;5102889;28;20471;-72
2022/01/03 19:05:59;;;;;;;27.02;8.45;;;;;;;;;;5104934;28;20035;-71
2022/01/03 19:08:25;;;;;;;21.92;9.95;;;;;;;;;;5095886;28;20019;-74
2022/01/03 19:10:52;;;;;;;24.00;10.38;;;;;;;;;;5102668;28;20023;-72
2022/01/03 19:13:18;;;;;;;28.33;12.38;;;;;;;;;;5098920;28;20042;-71
2022/01/03 19:15:45;;;;;;;28.67;12.38;;;;;;;;;;5096723;28;20024;-72
2022/01/03 19:18:14;;;;;;;29.02;14.10;;;;;;;;;;5081576;28;20032;-71
2022/01/03 19:20:41;;;;;;;32.40;15.18;;;;;;;;;;5088190;28;20024;-71
2022/01/03 19:23:09;;;;;;;27.63;14.18;;;;;;;;;;5083388;28;20052;-72
2022/01/03 19:25:35;;;;;;;34.20;14.90;;;;;;;;;;5090155;28;20028;-71
2022/01/03 19:28:02;;;;;;;23.45;12.40;;;;;;;;;;5090727;28;20047;-71
2022/01/03 19:30:28;;;;;;;23.00;12.50;;;;;;;;;;5094626;28;20055;-72
2022/01/03 19:38:22;;;;;;;27.73;11.23;;;;;;;;;;5092631;28;20043;-74
2022/01/03 19:40:48;;;;;;;24.30;12.27;;;;;;;;;;5094685;28;20032;-74
2022/01/03 19:43:15;;;;;;;23.73;11.50;;;;;;;;;;5092363;28;20029;-75
2022/01/03 19:45:41;;;;;;;26.05;12.02;;;;;;;;;;5086545;28;20066;-73
2022/01/03 19:48:11;;;;;;;24.98;10.75;;;;;;;;;;5092896;28;20038;-72
2022/01/03 19:50:39;;;;;;;23.98;10.27;;;;;;;;;;5094571;28;20534;-72
2022/01/03 19:53:05;;;;;;;21.65;8.27;;;;;;;;;;5090215;28;20399;-73
2022/01/03 19:55:31;;;;;;;18.33;7.80;;;;;;;;;;5095664;28;20066;-73
2022/01/03 19:57:57;;;;;;;22.98;8.05;;;;;;;;;;5097468;28;20028;-73
2022/01/03 20:00:23;;;;;;;17.52;7.78;;;;;;;;;;5094497;28;20020;-73
2022/01/03 20:02:50;;;;;;;19.52;6.38;;;;;;;;;;5096560;28;20051;-73
2022/01/03 20:05:16;;;;;;;16.08;6.57;;;;;;;;;;5097064;28;20040;-73
2022/01/03 20:07:42;;;;;;;23.20;7.63;;;;;;;;;;5099687;28;20461;-73
2022/01/03 20:10:10;;;;;;;19.60;7.60;;;;;;;;;;5095165;28;20044;-73
2022/01/03 20:12:36;;;;;;;21.58;8.57;;;;;;;;;;5099958;28;20479;-73
2022/01/03 20:15:04;;;;;;;20.00;7.88;;;;;;;;;;5098338;28;20056;-72
2022/01/03 20:17:32;;;;;;;17.08;7.90;;;;;;;;;;5093760;28;20016;-73
2022/01/03 20:19:59;;;;;;;12.48;7.05;;;;;;;;;;5097523;28;20044;-73
2022/01/03 20:22:25;;;;;;;15.88;7.25;;;;;;;;;;5098452;28;20057;-72
2022/01/03 20:24:51;;;;;;;14.70;6.38;;;;;;;;;;5101218;28;20051;-72
2022/01/03 20:27:17;;;;;;;13.55;5.45;;;;;;;;;;5097439;28;20016;-74
2022/01/03 20:29:44;;;;;;;20.23;5.55;;;;;;;;;;5100411;28;20540;-73
2022/01/03 20:32:12;;;;;;;12.82;4.90;;;;;;;;;;5093465;28;20028;-74
2022/01/03 20:34:40;;;;;;;17.08;5.60;;;;;;;;;;5099512;28;20036;-74
2022/01/03 20:37:06;;;;;;;15.68;5.50;;;;;;;;;;5096650;28;20031;-74
2022/01/03 20:39:32;;;;;;;13.60;4.75;;;;;;;;;;5101688;28;20053;-75
2022/01/03 20:41:59;;;;;;;17.98;4.50;;;;;;;;;;5095525;28;20023;-74
2022/01/03 20:44:25;;;;;;;15.88;4.53;;;;;;;;;;5096838;28;20040;-75
2022/01/03 20:46:51;;;;;;;13.45;4.90;;;;;;;;;;5101032;28;20030;-73
2022/01/03 20:49:18;;;;;;;12.75;6.68;;;;;;;;;;5092929;28;20435;-71
2022/01/03 20:51:44;;;;;;;21.85;8.75;;;;;;;;;;5103186;28;20023;-73
2022/01/03 20:54:10;;;;;;;20.25;7.28;;;;;;;;;;5097580;28;20572;-71
2022/01/03 20:56:37;;;;;;;12.20;5.60;;;;;;;;;;5099422;28;20065;-71
2022/01/03 20:59:04;;;;;;;13.32;5.05;;;;;;;;;;5098686;28;20063;-71
2022/01/03 21:01:30;;;;;;;13.88;4.25;;;;;;;;;;5096266;28;20020;-71
2022/01/03 21:03:57;;;;;;;10.07;3.60;;;;;;;;;;5097337;28;20537;-73
2022/01/03 21:06:24;;;;;;;10.57;3.80;;;;;;;;;;5101210;28;20020;-73
2022/01/03 21:08:50;;;;;;;13.10;4.50;;;;;;;;;;5097425;28;20423;-73
2022/01/03 21:11:16;;;;;;;15.80;6.57;;;;;;;;;;5081416;28;20016;-74
2022/01/03 21:13:44;;;;;;;14.45;5.43;;;;;;;;;;5082093;28;20032;-73
2022/01/03 21:16:10;;;;;;;14.98;5.05;;;;;;;;;;5076041;28;20126;-73
2022/01/03 21:18:36;;;;;;;18.23;5.13;;;;;;;;;;5080762;28;20085;-74
2022/01/03 21:21:03;;;;;;;11.70;5.20;;;;;;;;;;5096487;28;20028;-76
2022/01/03 21:23:30;;;;;;;14.93;4.47;;;;;;;;;;5089531;28;20040;-74
2022/01/03 21:25:57;;;;;;;10.88;4.65;;;;;;;;;;5082246;28;20024;-74
2022/01/03 21:28:23;;;;;;;16.83;5.35;;;;;;;;;;5085288;28;20027;-75
2022/01/03 21:30:52;;;;;;;14.07;5.93;;;;;;;;;;5086899;28;20028;-74
2022/01/03 21:33:18;;;;;;;16.90;5.15;;;;;;;;;;5085607;28;20106;-74
2022/01/03 21:35:46;;;;;;;12.20;4.72;;;;;;;;;;5094043;28;20035;-73
2022/01/03 21:38:12;;;;;;;11.40;4.35;;;;;;;;;;5090596;28;20159;-73
2022/01/03 21:40:38;;;;;;;11.82;3.90;;;;;;;;;;5083990;28;20039;-75
2022/01/03 21:43:04;;;;;;;10.82;4.22;;;;;;;;;;5092938;28;20032;-75
2022/01/03 21:45:31;;;;;;;11.85;4.40;;;;;;;;;;5090235;28;20115;-75
2022/01/03 21:47:58;;;;;;;12.88;4.72;;;;;;;;;;5092102;28;20410;-76
2022/01/03 21:50:25;;;;;;;18.52;4.60;;;;;;;;;;5089106;28;20069;-76
2022/01/03 21:52:51;;;;;;;11.80;4.75;;;;;;;;;;5086467;28;20075;-75
2022/01/03 21:55:17;;;;;;;15.95;5.20;;;;;;;;;;5089337;28;20029;-76
2022/01/03 21:57:44;;;;;;;10.25;4.30;;;;;;;;;;5083009;28;20025;-75
2022/01/03 22:00:10;;;;;;;15.75;5.63;;;;;;;;;;5092866;28;20027;-75
2022/01/03 22:02:37;;;;;;;17.83;6.72;;;;;;;;;;5082962;28;20403;-74
2022/01/03 22:05:04;;;;;;;13.05;5.88;;;;;;;;;;5094473;28;20046;-77
2022/01/03 22:07:31;;;;;;;17.73;6.30;;;;;;;;;;5097875;28;20020;-77
2022/01/03 22:09:57;;;;;;;10.05;4.57;;;;;;;;;;5099838;28;20020;-76
2022/01/03 22:12:24;;;;;;;14.80;4.70;;;;;;;;;;5092233;28;20442;-76
2022/01/03 22:14:50;;;;;;;11.93;4.40;;;;;;;;;;5090769;28;20024;-75
2022/01/03 22:17:17;;;;;;;13.20;4.53;;;;;;;;;;5095913;28;20035;-75
2022/01/03 22:19:43;;;;;;;9.60;4.30;;;;;;;;;;5096600;28;20045;-75
2022/01/03 22:22:09;;;;;;;10.52;4.35;;;;;;;;;;5097254;28;20058;-77
2022/01/03 22:24:35;;;;;;;13.63;3.80;;;;;;;;;;5106613;28;20030;-74
2022/01/03 22:27:02;;;;;;;11.25;3.95;;;;;;;;;;5094533;28;20028;-75
2022/01/03 22:29:29;;;;;;;14.25;4.43;;;;;;;;;;5087974;28;20106;-76
2022/01/03 22:31:55;;;;;;;11.25;4.07;;;;;;;;;;5081354;28;20055;-75
2022/01/03 22:34:21;;;;;;;10.45;3.70;;;;;;;;;;5087853;28;20074;-73
2022/01/03 22:36:48;;;;;;;7.82;3.75;;;;;;;;;;5094076;28;20121;-72
2022/01/03 22:39:15;;;;;;;11.20;4.38;;;;;;;;;;5087346;28;20122;-74
2022/01/03 22:41:41;;;;;;;9.07;3.83;;;;;;;;;;5093355;28;20047;-74
2022/01/03 22:44:07;;;;;;;10.77;4.10;;;;;;;;;;5094020;28;20044;-73
2022/01/03 22:46:35;;;;;;;9.52;3.83;;;;;;;;;;5096024;28;20016;-74
2022/01/03 22:49:01;;;;;;;11.02;4.32;;;;;;;;;;5101303;28;20121;-74
2022/01/03 22:51:27;;;;;;;10.75;4.00;;;;;;;;;;5102763;28;20035;-72
2022/01/03 22:53:53;;;;;;;11.30;4.35;;;;;;;;;;5100828;28;20038;-73
2022/01/03 22:56:20;;;;;;;14.55;4.00;;;;;;;;;;5100364;28;20032;-72
2022/01/03 22:58:46;;;;;;;10.18;3.55;;;;;;;;;;5093750;28;20432;-73
2022/01/03 23:01:12;;;;;;;12.48;3.42;;;;;;;;;;5102620;28;20040;-73
2022/01/03 23:03:38;;;;;;;9.93;3.33;;;;;;;;;;5089351;28;20135;-72
2022/01/03 23:06:05;;;;;;;13.40;4.15;;;;;;;;;;5088019;28;20101;-75
2022/01/03 23:08:32;;;;;;;10.98;3.58;;;;;;;;;;5093998;28;20073;-76
2022/01/03 23:10:59;;;;;;;6.95;3.30;;;;;;;;;;5092365;28;20099;-71
